sensor_id;sensor_type;location;lat;lon;timestamp;pressure;altitude;pressure_sealevel;temperature;humidity
75521;BME280;64102;48.628;9.002;2023-06-04T00:01:05;96078.41;;;10.92;84.26
75521;BME280;64102;48.628;9.002;2023-06-04T00:03:31;96075.19;;;10.80;83.76
75521;BME280;64102;48.628;9.002;2023-06-04T00:05:57;96078.44;;;10.72;84.20
75521;BME280;64102;48.628;9.002;2023-06-04T00:08:22;96079.00;;;10.66;84.18
75521;BME280;64102;48.628;9.002;2023-06-04T00:10:49;96077.69;;;10.43;84.69
75521;BME280;64102;48.628;9.002;2023-06-04T00:13:14;96074.16;;;10.25;86.84
75521;BME280;64102;48.628;9.002;2023-06-04T00:15:40;96072.78;;;10.02;87.25
75521;BME280;64102;48.628;9.002;2023-06-04T00:18:06;96073.16;;;9.87;87.84
75521;BME280;64102;48.628;9.002;2023-06-04T00:20:31;96069.94;;;9.85;90.26
75521;BME280;64102;48.628;9.002;2023-06-04T00:22:57;96064.53;;;10.17;89.94
75521;BME280;64102;48.628;9.002;2023-06-04T00:25:22;96073.34;;;10.34;88.28
75521;BME280;64102;48.628;9.002;2023-06-04T00:27:47;96072.66;;;10.32;88.21
75521;BME280;64102;48.628;9.002;2023-06-04T00:30:13;96068.31;;;10.32;88.85
75521;BME280;64102;48.628;9.002;2023-06-04T00:32:39;96064.09;;;10.41;87.96
75521;BME280;64102;48.628;9.002;2023-06-04T00:35:05;96065.63;;;10.34;88.24
75521;BME280;64102;48.628;9.002;2023-06-04T00:37:31;96064.78;;;10.33;88.67
75521;BME280;64102;48.628;9.002;2023-06-04T00:39:56;96068.88;;;10.26;87.87
75521;BME280;64102;48.628;9.002;2023-06-04T00:42:22;96059.59;;;10.14;89.76
75521;BME280;64102;48.628;9.002;2023-06-04T00:44:47;96065.03;;;9.92;90.39
75521;BME280;64102;48.628;9.002;2023-06-04T00:47:14;96072.06;;;9.71;90.53
75521;BME280;64102;48.628;9.002;2023-06-04T00:49:40;96073.25;;;9.57;90.82
75521;BME280;64102;48.628;9.002;2023-06-04T00:52:08;96073.97;;;9.59;90.30
75521;BME280;64102;48.628;9.002;2023-06-04T00:54:34;96079.59;;;9.43;91.43
75521;BME280;64102;48.628;9.002;2023-06-04T00:57:00;96079.66;;;9.63;92.72
75521;BME280;64102;48.628;9.002;2023-06-04T00:59:26;96078.88;;;9.72;92.31
75521;BME280;64102;48.628;9.002;2023-06-04T01:01:58;96083.22;;;9.91;91.21
75521;BME280;64102;48.628;9.002;2023-06-04T01:05:00;96074.25;;;10.14;89.15
75521;BME280;64102;48.628;9.002;2023-06-04T01:07:22;96079.19;;;10.17;89.24
75521;BME280;64102;48.628;9.002;2023-06-04T01:09:49;96079.28;;;10.06;88.94
75521;BME280;64102;48.628;9.002;2023-06-04T01:12:14;96080.78;;;9.99;90.51
75521;BME280;64102;48.628;9.002;2023-06-04T01:14:41;96085.00;;;10.00;89.60
75521;BME280;64102;48.628;9.002;2023-06-04T01:17:20;96075.34;;;10.02;90.27
75521;BME280;64102;48.628;9.002;2023-06-04T01:25:05;96079.13;;;9.59;92.00
75521;BME280;64102;48.628;9.002;2023-06-04T01:27:31;96069.44;;;9.52;93.02
75521;BME280;64102;48.628;9.002;2023-06-04T01:29:58;96070.16;;;9.54;92.93
75521;BME280;64102;48.628;9.002;2023-06-04T01:32:25;96069.88;;;9.57;93.22
75521;BME280;64102;48.628;9.002;2023-06-04T01:34:51;96067.28;;;9.47;93.57
75521;BME280;64102;48.628;9.002;2023-06-04T01:37:17;96071.59;;;9.37;93.43
75521;BME280;64102;48.628;9.002;2023-06-04T01:39:43;96071.91;;;9.13;92.65
75521;BME280;64102;48.628;9.002;2023-06-04T01:42:09;96068.63;;;9.02;91.87
75521;BME280;64102;48.628;9.002;2023-06-04T01:44:34;96070.19;;;8.93;92.66
75521;BME280;64102;48.628;9.002;2023-06-04T01:47:00;96072.97;;;9.01;92.22
75521;BME280;64102;48.628;9.002;2023-06-04T01:49:25;96074.56;;;9.02;93.09
75521;BME280;64102;48.628;9.002;2023-06-04T01:51:50;96076.44;;;8.90;94.01
75521;BME280;64102;48.628;9.002;2023-06-04T01:54:16;96071.94;;;8.83;94.71
75521;BME280;64102;48.628;9.002;2023-06-04T01:56:41;96083.06;;;8.93;94.84
75521;BME280;64102;48.628;9.002;2023-06-04T01:59:07;96076.75;;;9.07;94.45
75521;BME280;64102;48.628;9.002;2023-06-04T02:01:33;96073.72;;;9.22;94.29
75521;BME280;64102;48.628;9.002;2023-06-04T02:03:59;96075.75;;;9.19;93.76
75521;BME280;64102;48.628;9.002;2023-06-04T02:06:24;96074.00;;;9.29;93.52
75521;BME280;64102;48.628;9.002;2023-06-04T02:08:55;96071.03;;;9.24;94.65
75521;BME280;64102;48.628;9.002;2023-06-04T02:11:21;96068.03;;;9.19;93.63
75521;BME280;64102;48.628;9.002;2023-06-04T02:13:46;96070.69;;;9.08;95.00
75521;BME280;64102;48.628;9.002;2023-06-04T02:16:11;96071.00;;;8.93;94.91
75521;BME280;64102;48.628;9.002;2023-06-04T02:18:36;96069.59;;;8.80;95.58
75521;BME280;64102;48.628;9.002;2023-06-04T02:21:02;96076.69;;;8.87;97.22
75521;BME280;64102;48.628;9.002;2023-06-04T02:23:27;96065.19;;;8.91;97.55
75521;BME280;64102;48.628;9.002;2023-06-04T02:25:53;96071.59;;;8.97;96.49
75521;BME280;64102;48.628;9.002;2023-06-04T02:28:18;96075.22;;;8.94;95.78
75521;BME280;64102;48.628;9.002;2023-06-04T02:30:44;96066.41;;;8.87;97.18
75521;BME280;64102;48.628;9.002;2023-06-04T02:33:11;96070.59;;;8.88;96.56
75521;BME280;64102;48.628;9.002;2023-06-04T02:35:36;96072.97;;;8.80;96.05
75521;BME280;64102;48.628;9.002;2023-06-04T02:38:02;96066.25;;;8.59;97.13
75521;BME280;64102;48.628;9.002;2023-06-04T02:40:28;96068.06;;;8.47;98.21
75521;BME280;64102;48.628;9.002;2023-06-04T02:42:55;96066.06;;;8.30;98.49
75521;BME280;64102;48.628;9.002;2023-06-04T02:45:21;96069.97;;;8.13;99.10
75521;BME280;64102;48.628;9.002;2023-06-04T02:47:47;96072.59;;;8.02;99.12
75521;BME280;64102;48.628;9.002;2023-06-04T02:50:13;96078.22;;;7.96;98.47
75521;BME280;64102;48.628;9.002;2023-06-04T02:52:39;96074.16;;;7.82;98.71
75521;BME280;64102;48.628;9.002;2023-06-04T02:55:06;96077.91;;;7.78;100.00
75521;BME280;64102;48.628;9.002;2023-06-04T02:57:32;96075.50;;;7.77;100.00
75521;BME280;64102;48.628;9.002;2023-06-04T02:59:59;96077.84;;;8.00;100.00
75521;BME280;64102;48.628;9.002;2023-06-04T03:02:25;96074.63;;;8.19;100.00
75521;BME280;64102;48.628;9.002;2023-06-04T03:04:51;96079.19;;;8.47;98.39
75521;BME280;64102;48.628;9.002;2023-06-04T03:07:17;96083.19;;;8.61;97.81
75521;BME280;64102;48.628;9.002;2023-06-04T03:09:48;96083.19;;;8.61;97.36
75521;BME280;64102;48.628;9.002;2023-06-04T03:12:14;96082.94;;;8.64;97.19
75521;BME280;64102;48.628;9.002;2023-06-04T03:14:39;96085.88;;;8.60;97.48
75521;BME280;64102;48.628;9.002;2023-06-04T03:17:05;96088.56;;;8.58;97.49
75521;BME280;64102;48.628;9.002;2023-06-04T03:19:40;96087.72;;;8.48;98.09
75521;BME280;64102;48.628;9.002;2023-06-04T03:22:07;96093.25;;;8.53;98.96
75521;BME280;64102;48.628;9.002;2023-06-04T03:24:37;96090.91;;;8.61;98.72
75521;BME280;64102;48.628;9.002;2023-06-04T03:27:04;96099.19;;;8.65;97.81
75521;BME280;64102;48.628;9.002;2023-06-04T03:29:31;96098.56;;;8.51;98.38
75521;BME280;64102;48.628;9.002;2023-06-04T03:31:57;96092.84;;;8.48;99.91
75521;BME280;64102;48.628;9.002;2023-06-04T03:34:22;96098.78;;;8.48;99.01
75521;BME280;64102;48.628;9.002;2023-06-04T03:36:51;96101.13;;;8.51;98.23
75521;BME280;64102;48.628;9.002;2023-06-04T03:39:16;96100.78;;;8.45;99.23
75521;BME280;64102;48.628;9.002;2023-06-04T03:41:41;96102.31;;;8.47;99.01
75521;BME280;64102;48.628;9.002;2023-06-04T03:44:07;96099.59;;;8.49;98.94
75521;BME280;64102;48.628;9.002;2023-06-04T03:46:32;96098.38;;;8.43;99.01
75521;BME280;64102;48.628;9.002;2023-06-04T03:48:58;96099.22;;;8.33;99.57
75521;BME280;64102;48.628;9.002;2023-06-04T03:51:24;96101.69;;;8.23;99.87
75521;BME280;64102;48.628;9.002;2023-06-04T03:53:50;96101.72;;;8.44;99.58
75521;BME280;64102;48.628;9.002;2023-06-04T03:56:15;96116.56;;;8.51;98.59
75521;BME280;64102;48.628;9.002;2023-06-04T03:58:41;96109.72;;;8.41;99.14
75521;BME280;64102;48.628;9.002;2023-06-04T04:01:06;96111.97;;;8.55;97.97
75521;BME280;64102;48.628;9.002;2023-06-04T04:03:33;96116.63;;;8.61;97.61
75521;BME280;64102;48.628;9.002;2023-06-04T04:06:00;96115.56;;;8.64;97.03
75521;BME280;64102;48.628;9.002;2023-06-04T04:08:25;96110.53;;;8.62;96.24
75521;BME280;64102;48.628;9.002;2023-06-04T04:10:55;96115.47;;;8.54;97.07
75521;BME280;64102;48.628;9.002;2023-06-04T04:13:20;96116.94;;;8.68;96.90
75521;BME280;64102;48.628;9.002;2023-06-04T04:15:46;96109.00;;;8.80;96.22
75521;BME280;64102;48.628;9.002;2023-06-04T04:18:11;96111.19;;;9.15;93.73
75521;BME280;64102;48.628;9.002;2023-06-04T04:20:36;96112.63;;;9.29;92.82
75521;BME280;64102;48.628;9.002;2023-06-04T04:23:02;96108.75;;;9.44;91.30
75521;BME280;64102;48.628;9.002;2023-06-04T04:25:27;96109.06;;;9.60;90.87
75521;BME280;64102;48.628;9.002;2023-06-04T04:27:53;96119.53;;;9.68;90.20
75521;BME280;64102;48.628;9.002;2023-06-04T04:30:21;96117.91;;;9.67;89.98
75521;BME280;64102;48.628;9.002;2023-06-04T04:32:47;96113.41;;;9.60;90.57
75521;BME280;64102;48.628;9.002;2023-06-04T04:35:16;96123.47;;;9.72;90.36
75521;BME280;64102;48.628;9.002;2023-06-04T04:37:44;96121.31;;;9.87;89.43
75521;BME280;64102;48.628;9.002;2023-06-04T04:40:10;96124.72;;;9.87;89.26
75521;BME280;64102;48.628;9.002;2023-06-04T04:42:36;96127.47;;;10.05;88.40
75521;BME280;64102;48.628;9.002;2023-06-04T04:45:02;96131.84;;;10.33;86.89
75521;BME280;64102;48.628;9.002;2023-06-04T04:47:28;96132.00;;;10.51;85.45
75521;BME280;64102;48.628;9.002;2023-06-04T04:49:53;96126.94;;;10.78;83.69
75521;BME280;64102;48.628;9.002;2023-06-04T04:52:18;96130.97;;;10.91;83.37
75521;BME280;64102;48.628;9.002;2023-06-04T04:54:44;96128.22;;;11.11;81.82
75521;BME280;64102;48.628;9.002;2023-06-04T04:57:09;96130.28;;;11.35;80.45
75521;BME280;64102;48.628;9.002;2023-06-04T04:59:34;96133.38;;;11.48;79.81
75521;BME280;64102;48.628;9.002;2023-06-04T05:02:00;96127.59;;;11.64;79.04
75521;BME280;64102;48.628;9.002;2023-06-04T05:04:25;96133.41;;;11.76;78.46
75521;BME280;64102;48.628;9.002;2023-06-04T05:06:50;96136.69;;;11.68;78.44
75521;BME280;64102;48.628;9.002;2023-06-04T05:09:16;96140.56;;;11.54;79.10
75521;BME280;64102;48.628;9.002;2023-06-04T05:11:41;96140.72;;;11.43;80.84
75521;BME280;64102;48.628;9.002;2023-06-04T05:14:06;96147.25;;;11.47;80.05
75521;BME280;64102;48.628;9.002;2023-06-04T05:16:32;96150.22;;;11.52;79.93
75521;BME280;64102;48.628;9.002;2023-06-04T05:19:00;96155.28;;;11.81;78.58
75521;BME280;64102;48.628;9.002;2023-06-04T05:21:27;96148.81;;;11.95;77.49
75521;BME280;64102;48.628;9.002;2023-06-04T05:23:54;96162.63;;;12.31;76.86
75521;BME280;64102;48.628;9.002;2023-06-04T05:26:19;96160.78;;;12.59;75.80
75521;BME280;64102;48.628;9.002;2023-06-04T05:28:48;96156.22;;;12.78;74.58
75521;BME280;64102;48.628;9.002;2023-06-04T05:31:14;96158.94;;;12.94;73.35
75521;BME280;64102;48.628;9.002;2023-06-04T05:33:41;96156.41;;;13.20;72.04
75521;BME280;64102;48.628;9.002;2023-06-04T05:36:06;96167.53;;;13.38;73.03
75521;BME280;64102;48.628;9.002;2023-06-04T05:38:32;96167.00;;;13.61;71.40
75521;BME280;64102;48.628;9.002;2023-06-04T05:40:58;96158.66;;;13.83;70.45
75521;BME280;64102;48.628;9.002;2023-06-04T05:43:23;96157.88;;;13.99;69.37
75521;BME280;64102;48.628;9.002;2023-06-04T05:45:48;96156.81;;;14.25;67.27
75521;BME280;64102;48.628;9.002;2023-06-04T05:48:14;96162.41;;;14.87;64.19
75521;BME280;64102;48.628;9.002;2023-06-04T05:50:40;96162.69;;;15.57;61.54
75521;BME280;64102;48.628;9.002;2023-06-04T05:53:05;96154.63;;;16.67;57.05
75521;BME280;64102;48.628;9.002;2023-06-04T05:55:31;96158.13;;;17.34;53.45
75521;BME280;64102;48.628;9.002;2023-06-04T05:57:56;96156.81;;;17.97;52.41
75521;BME280;64102;48.628;9.002;2023-06-04T06:00:22;96162.34;;;18.23;46.50
75521;BME280;64102;48.628;9.002;2023-06-04T06:02:49;96169.50;;;18.72;47.04
75521;BME280;64102;48.628;9.002;2023-06-04T06:05:16;96166.19;;;19.06;46.34
75521;BME280;64102;48.628;9.002;2023-06-04T06:07:41;96171.84;;;19.09;44.04
75521;BME280;64102;48.628;9.002;2023-06-04T06:10:07;96173.00;;;19.28;42.23
75521;BME280;64102;48.628;9.002;2023-06-04T06:12:33;96175.75;;;19.20;45.53
75521;BME280;64102;48.628;9.002;2023-06-04T06:14:58;96168.97;;;19.53;43.42
75521;BME280;64102;48.628;9.002;2023-06-04T06:17:24;96179.59;;;19.80;44.26
75521;BME280;64102;48.628;9.002;2023-06-04T06:19:51;96173.94;;;19.76;43.11
75521;BME280;64102;48.628;9.002;2023-06-04T06:22:17;96184.00;;;19.73;43.35
75521;BME280;64102;48.628;9.002;2023-06-04T06:24:42;96180.19;;;19.75;42.22
75521;BME280;64102;48.628;9.002;2023-06-04T06:27:07;96180.91;;;20.38;42.55
75521;BME280;64102;48.628;9.002;2023-06-04T06:29:33;96184.84;;;20.75;39.90
75521;BME280;64102;48.628;9.002;2023-06-04T06:31:59;96190.63;;;20.44;41.01
75521;BME280;64102;48.628;9.002;2023-06-04T06:34:24;96189.78;;;19.61;40.46
75521;BME280;64102;48.628;9.002;2023-06-04T06:36:49;96192.38;;;19.61;42.71
75521;BME280;64102;48.628;9.002;2023-06-04T06:39:15;96195.16;;;20.29;41.86
75521;BME280;64102;48.628;9.002;2023-06-04T06:41:41;96194.09;;;20.58;39.24
75521;BME280;64102;48.628;9.002;2023-06-04T06:44:06;96193.47;;;20.08;40.71
75521;BME280;64102;48.628;9.002;2023-06-04T06:46:32;96203.69;;;19.62;41.17
75521;BME280;64102;48.628;9.002;2023-06-04T06:48:57;96207.50;;;20.00;42.05
75521;BME280;64102;48.628;9.002;2023-06-04T06:51:23;96197.47;;;20.04;42.10
75521;BME280;64102;48.628;9.002;2023-06-04T06:53:51;96199.88;;;19.99;42.35
75521;BME280;64102;48.628;9.002;2023-06-04T06:56:17;96201.44;;;21.21;40.92
75521;BME280;64102;48.628;9.002;2023-06-04T06:58:44;96201.81;;;21.77;39.33
75521;BME280;64102;48.628;9.002;2023-06-04T07:01:09;96194.53;;;20.94;39.11
75521;BME280;64102;48.628;9.002;2023-06-04T07:03:35;96192.53;;;20.96;39.75
75521;BME280;64102;48.628;9.002;2023-06-04T07:06:00;96198.69;;;20.55;40.02
75521;BME280;64102;48.628;9.002;2023-06-04T07:08:26;96189.53;;;21.25;40.26
75521;BME280;64102;48.628;9.002;2023-06-04T07:10:51;96194.56;;;21.53;39.87
75521;BME280;64102;48.628;9.002;2023-06-04T07:13:16;96190.50;;;21.70;39.61
75521;BME280;64102;48.628;9.002;2023-06-04T07:15:42;96195.78;;;21.64;38.96
75521;BME280;64102;48.628;9.002;2023-06-04T07:18:07;96188.31;;;21.21;41.19
75521;BME280;64102;48.628;9.002;2023-06-04T07:20:33;96194.78;;;21.38;40.10
75521;BME280;64102;48.628;9.002;2023-06-04T07:22:58;96196.09;;;22.13;39.50
75521;BME280;64102;48.628;9.002;2023-06-04T07:25:24;96194.19;;;21.50;40.47
75521;BME280;64102;48.628;9.002;2023-06-04T07:27:50;96193.56;;;22.38;40.15
75521;BME280;64102;48.628;9.002;2023-06-04T07:30:16;96189.59;;;22.22;39.81
75521;BME280;64102;48.628;9.002;2023-06-04T07:32:47;96191.13;;;23.37;37.10
75521;BME280;64102;48.628;9.002;2023-06-04T07:35:12;96189.25;;;23.19;37.79
75521;BME280;64102;48.628;9.002;2023-06-04T07:37:38;96189.66;;;24.27;35.15
75521;BME280;64102;48.628;9.002;2023-06-04T07:40:03;96188.34;;;24.36;34.51
75521;BME280;64102;48.628;9.002;2023-06-04T07:42:29;96185.53;;;24.13;34.88
75521;BME280;64102;48.628;9.002;2023-06-04T07:44:54;96192.13;;;24.59;34.42
75521;BME280;64102;48.628;9.002;2023-06-04T07:47:20;96185.06;;;24.23;34.42
75521;BME280;64102;48.628;9.002;2023-06-04T07:49:45;96183.84;;;23.64;35.68
75521;BME280;64102;48.628;9.002;2023-06-04T07:52:11;96181.38;;;23.87;37.58
75521;BME280;64102;48.628;9.002;2023-06-04T07:54:37;96180.75;;;24.88;34.49
75521;BME280;64102;48.628;9.002;2023-06-04T07:57:02;96176.97;;;24.95;33.62
75521;BME280;64102;48.628;9.002;2023-06-04T07:59:28;96180.13;;;25.04;33.58
75521;BME280;64102;48.628;9.002;2023-06-04T08:01:54;96179.16;;;25.87;34.12
75521;BME280;64102;48.628;9.002;2023-06-04T08:04:19;96177.50;;;25.04;34.01
75521;BME280;64102;48.628;9.002;2023-06-04T08:06:45;96180.66;;;24.17;33.99
75521;BME280;64102;48.628;9.002;2023-06-04T08:09:11;96170.19;;;24.58;34.29
75521;BME280;64102;48.628;9.002;2023-06-04T08:11:38;96169.50;;;24.15;34.87
75521;BME280;64102;48.628;9.002;2023-06-04T08:14:04;96177.16;;;25.12;34.59
75521;BME280;64102;48.628;9.002;2023-06-04T08:16:31;96187.38;;;25.09;34.14
75521;BME280;64102;48.628;9.002;2023-06-04T08:18:57;96177.19;;;25.35;34.09
75521;BME280;64102;48.628;9.002;2023-06-04T08:21:26;96175.41;;;26.34;33.08
75521;BME280;64102;48.628;9.002;2023-06-04T08:23:52;96180.84;;;27.12;30.00
75521;BME280;64102;48.628;9.002;2023-06-04T08:26:18;96182.53;;;27.35;29.99
75521;BME280;64102;48.628;9.002;2023-06-04T08:28:44;96180.69;;;28.08;28.87
75521;BME280;64102;48.628;9.002;2023-06-04T08:31:10;96179.97;;;27.74;29.45
75521;BME280;64102;48.628;9.002;2023-06-04T08:33:35;96187.28;;;28.05;28.21
75521;BME280;64102;48.628;9.002;2023-06-04T08:36:01;96172.78;;;26.91;29.17
75521;BME280;64102;48.628;9.002;2023-06-04T08:38:26;96172.81;;;25.99;30.74
75521;BME280;64102;48.628;9.002;2023-06-04T08:40:52;96179.72;;;25.30;30.68
75521;BME280;64102;48.628;9.002;2023-06-04T08:43:19;96177.50;;;26.32;31.67
75521;BME280;64102;48.628;9.002;2023-06-04T08:45:49;96187.28;;;27.16;29.16
75521;BME280;64102;48.628;9.002;2023-06-04T08:48:17;96179.53;;;25.02;32.16
75521;BME280;64102;48.628;9.002;2023-06-04T08:50:45;96187.66;;;24.59;33.38
75521;BME280;64102;48.628;9.002;2023-06-04T08:53:14;96177.34;;;25.75;31.08
75521;BME280;64102;48.628;9.002;2023-06-04T08:55:40;96178.66;;;26.64;29.53
75521;BME280;64102;48.628;9.002;2023-06-04T08:58:07;96189.47;;;27.36;28.83
75521;BME280;64102;48.628;9.002;2023-06-04T09:00:35;96187.56;;;27.48;29.25
75521;BME280;64102;48.628;9.002;2023-06-04T09:03:02;96181.31;;;26.64;28.32
75521;BME280;64102;48.628;9.002;2023-06-04T09:05:29;96186.50;;;25.38;29.75
75521;BME280;64102;48.628;9.002;2023-06-04T09:07:55;96187.97;;;27.45;29.77
75521;BME280;64102;48.628;9.002;2023-06-04T09:10:25;96189.59;;;27.80;27.25
75521;BME280;64102;48.628;9.002;2023-06-04T09:12:52;96190.09;;;27.27;28.60
75521;BME280;64102;48.628;9.002;2023-06-04T09:15:17;96194.19;;;27.34;28.74
75521;BME280;64102;48.628;9.002;2023-06-04T09:17:43;96195.03;;;27.06;30.16
75521;BME280;64102;48.628;9.002;2023-06-04T09:20:21;96198.31;;;27.58;28.12
75521;BME280;64102;48.628;9.002;2023-06-04T09:22:47;96196.09;;;27.89;27.76
75521;BME280;64102;48.628;9.002;2023-06-04T09:25:26;96205.59;;;28.45;26.97
75521;BME280;64102;48.628;9.002;2023-06-04T09:27:53;96205.13;;;27.54;26.98
75521;BME280;64102;48.628;9.002;2023-06-04T09:30:21;96208.50;;;27.67;27.21
75521;BME280;64102;48.628;9.002;2023-06-04T09:32:46;96199.06;;;27.92;26.32
75521;BME280;64102;48.628;9.002;2023-06-04T09:37:39;96194.09;;;27.29;28.13
75521;BME280;64102;48.628;9.002;2023-06-04T09:40:04;96203.47;;;26.47;28.04
75521;BME280;64102;48.628;9.002;2023-06-04T09:42:42;96203.75;;;27.35;28.87
75521;BME280;64102;48.628;9.002;2023-06-04T09:45:08;96205.13;;;26.93;28.21
75521;BME280;64102;48.628;9.002;2023-06-04T09:47:43;96202.06;;;27.29;28.43
75521;BME280;64102;48.628;9.002;2023-06-04T09:50:10;96194.69;;;28.20;26.18
75521;BME280;64102;48.628;9.002;2023-06-04T09:52:36;96206.91;;;28.04;26.93
75521;BME280;64102;48.628;9.002;2023-06-04T09:55:03;96202.13;;;28.44;26.85
75521;BME280;64102;48.628;9.002;2023-06-04T09:57:29;96195.69;;;28.62;25.58
75521;BME280;64102;48.628;9.002;2023-06-04T09:59:56;96199.53;;;28.49;27.44
75521;BME280;64102;48.628;9.002;2023-06-04T10:02:22;96202.91;;;29.15;25.22
75521;BME280;64102;48.628;9.002;2023-06-04T10:04:55;96204.56;;;29.21;26.23
75521;BME280;64102;48.628;9.002;2023-06-04T10:07:25;96197.84;;;29.83;25.06
75521;BME280;64102;48.628;9.002;2023-06-04T10:09:52;96195.44;;;29.76;23.87
75521;BME280;64102;48.628;9.002;2023-06-04T10:12:24;96200.00;;;28.90;26.09
75521;BME280;64102;48.628;9.002;2023-06-04T10:14:52;96204.09;;;28.54;26.67
75521;BME280;64102;48.628;9.002;2023-06-04T10:17:22;96202.69;;;28.68;25.11
75521;BME280;64102;48.628;9.002;2023-06-04T10:19:53;96201.22;;;28.12;24.91
75521;BME280;64102;48.628;9.002;2023-06-04T10:22:22;96198.38;;;28.40;26.38
75521;BME280;64102;48.628;9.002;2023-06-04T10:24:48;96196.25;;;29.40;24.98
75521;BME280;64102;48.628;9.002;2023-06-04T10:27:14;96189.09;;;28.65;25.97
75521;BME280;64102;48.628;9.002;2023-06-04T10:29:42;96183.59;;;29.25;25.82
75521;BME280;64102;48.628;9.002;2023-06-04T10:32:08;96187.16;;;29.72;24.07
75521;BME280;64102;48.628;9.002;2023-06-04T10:34:34;96184.31;;;29.84;26.42
75521;BME280;64102;48.628;9.002;2023-06-04T10:36:59;96188.59;;;29.21;25.15
75521;BME280;64102;48.628;9.002;2023-06-04T10:39:28;96191.34;;;30.52;23.34
75521;BME280;64102;48.628;9.002;2023-06-04T10:42:01;96183.06;;;29.97;23.19
75521;BME280;64102;48.628;9.002;2023-06-04T10:44:43;96183.03;;;28.69;26.11
75521;BME280;64102;48.628;9.002;2023-06-04T10:47:24;96187.78;;;29.48;24.87
75521;BME280;64102;48.628;9.002;2023-06-04T10:49:54;96196.16;;;29.29;25.04
75521;BME280;64102;48.628;9.002;2023-06-04T10:52:21;96186.50;;;29.92;24.80
75521;BME280;64102;48.628;9.002;2023-06-04T10:54:47;96179.94;;;30.62;23.71
75521;BME280;64102;48.628;9.002;2023-06-04T10:57:18;96182.88;;;30.86;23.26
75521;BME280;64102;48.628;9.002;2023-06-04T10:59:54;96186.94;;;31.79;22.49
75521;BME280;64102;48.628;9.002;2023-06-04T11:02:19;96180.78;;;32.04;21.73
75521;BME280;64102;48.628;9.002;2023-06-04T11:04:46;96193.31;;;32.04;22.05
75521;BME280;64102;48.628;9.002;2023-06-04T11:07:11;96191.91;;;32.36;21.48
75521;BME280;64102;48.628;9.002;2023-06-04T11:09:38;96187.97;;;32.09;20.69
75521;BME280;64102;48.628;9.002;2023-06-04T11:12:12;96183.03;;;32.41;20.83
75521;BME280;64102;48.628;9.002;2023-06-04T11:14:37;96194.44;;;31.82;21.43
75521;BME280;64102;48.628;9.002;2023-06-04T11:17:13;96188.03;;;31.53;21.46
75521;BME280;64102;48.628;9.002;2023-06-04T11:19:39;96180.31;;;31.77;22.04
75521;BME280;64102;48.628;9.002;2023-06-04T11:22:05;96184.00;;;30.28;23.41
75521;BME280;64102;48.628;9.002;2023-06-04T11:24:32;96184.28;;;31.39;21.63
75521;BME280;64102;48.628;9.002;2023-06-04T11:26:58;96183.50;;;31.28;22.50
75521;BME280;64102;48.628;9.002;2023-06-04T11:29:25;96182.41;;;30.21;24.13
75521;BME280;64102;48.628;9.002;2023-06-04T11:31:50;96176.31;;;30.36;23.70
75521;BME280;64102;48.628;9.002;2023-06-04T11:34:25;96192.81;;;29.44;23.28
75521;BME280;64102;48.628;9.002;2023-06-04T11:36:51;96185.41;;;29.88;23.10
75521;BME280;64102;48.628;9.002;2023-06-04T11:39:20;96180.44;;;28.53;23.65
75521;BME280;64102;48.628;9.002;2023-06-04T11:41:46;96179.78;;;29.85;25.22
75521;BME280;64102;48.628;9.002;2023-06-04T11:44:13;96175.75;;;31.17;21.85
75521;BME280;64102;48.628;9.002;2023-06-04T11:46:42;96189.47;;;30.58;22.88
75521;BME280;64102;48.628;9.002;2023-06-04T11:49:17;96185.34;;;31.53;21.08
75521;BME280;64102;48.628;9.002;2023-06-04T11:51:49;96176.22;;;32.79;20.31
75521;BME280;64102;48.628;9.002;2023-06-04T11:54:16;96179.50;;;31.61;23.17
75521;BME280;64102;48.628;9.002;2023-06-04T11:56:43;96174.16;;;31.46;23.02
75521;BME280;64102;48.628;9.002;2023-06-04T11:59:13;96175.59;;;29.89;22.30
75521;BME280;64102;48.628;9.002;2023-06-04T12:01:47;96172.97;;;28.06;25.83
75521;BME280;64102;48.628;9.002;2023-06-04T12:04:17;96167.25;;;28.36;24.77
75521;BME280;64102;48.628;9.002;2023-06-04T12:06:53;96168.16;;;30.48;21.64
75521;BME280;64102;48.628;9.002;2023-06-04T12:09:26;96163.22;;;31.22;23.48
75521;BME280;64102;48.628;9.002;2023-06-04T12:12:00;96161.34;;;29.31;23.68
75521;BME280;64102;48.628;9.002;2023-06-04T12:14:26;96158.75;;;26.79;28.45
75521;BME280;64102;48.628;9.002;2023-06-04T12:17:17;96159.44;;;24.89;28.91
75521;BME280;64102;48.628;9.002;2023-06-04T12:19:47;96156.28;;;27.50;26.85
75521;BME280;64102;48.628;9.002;2023-06-04T12:22:13;96160.44;;;27.30;26.69
75521;BME280;64102;48.628;9.002;2023-06-04T12:24:56;96159.47;;;27.69;26.70
75521;BME280;64102;48.628;9.002;2023-06-04T12:27:23;96160.34;;;29.10;25.16
75521;BME280;64102;48.628;9.002;2023-06-04T12:30:03;96153.00;;;30.53;22.07
75521;BME280;64102;48.628;9.002;2023-06-04T12:32:30;96156.84;;;31.18;21.40
75521;BME280;64102;48.628;9.002;2023-06-04T12:34:56;96154.41;;;31.72;22.19
75521;BME280;64102;48.628;9.002;2023-06-04T12:37:23;96153.78;;;28.91;23.50
75521;BME280;64102;48.628;9.002;2023-06-04T12:39:50;96153.81;;;28.69;25.78
75521;BME280;64102;48.628;9.002;2023-06-04T12:42:17;96157.13;;;29.77;22.23
75521;BME280;64102;48.628;9.002;2023-06-04T12:44:44;96149.09;;;30.19;22.63
75521;BME280;64102;48.628;9.002;2023-06-04T12:47:09;96146.44;;;29.03;25.03
75521;BME280;64102;48.628;9.002;2023-06-04T12:49:36;96149.19;;;28.81;23.08
75521;BME280;64102;48.628;9.002;2023-06-04T12:52:02;96141.59;;;29.27;24.71
75521;BME280;64102;48.628;9.002;2023-06-04T12:54:27;96146.69;;;30.12;22.11
75521;BME280;64102;48.628;9.002;2023-06-04T12:56:53;96147.53;;;28.54;23.95
75521;BME280;64102;48.628;9.002;2023-06-04T12:59:22;96146.59;;;29.50;25.09
75521;BME280;64102;48.628;9.002;2023-06-04T13:01:47;96151.97;;;30.75;22.51
75521;BME280;64102;48.628;9.002;2023-06-04T13:04:13;96145.84;;;29.60;22.66
75521;BME280;64102;48.628;9.002;2023-06-04T13:06:38;96152.53;;;28.72;22.75
75521;BME280;64102;48.628;9.002;2023-06-04T13:09:05;96151.53;;;27.02;25.97